createdAt,value
2023-04-20T00:00:31.209Z,6.22
2023-04-20T00:01:33.704Z,6.20
2023-04-20T00:02:39.403Z,6.17
2023-04-20T00:03:42.290Z,6.15
2023-04-20T00:04:46.972Z,6.12
2023-04-20T00:05:49.830Z,6.11
2023-04-20T00:06:54.321Z,6.09
2023-04-20T00:07:56.956Z,6.07
2023-04-20T00:09:00.811Z,6.06
2023-04-20T00:10:03.985Z,6.03
2023-04-20T00:11:08.101Z,6.01
2023-04-20T00:12:10.885Z,6.00
2023-04-20T00:13:14.777Z,5.99
2023-04-20T00:14:17.611Z,5.96
2023-04-20T00:15:21.430Z,5.84
2023-04-20T00:16:24.310Z,5.92
2023-04-20T00:17:28.182Z,5.92
2023-04-20T00:18:32.355Z,5.92
2023-04-20T00:19:36.164Z,5.92
2023-04-20T00:20:38.955Z,5.92
2023-04-20T00:21:42.821Z,5.92
2023-04-20T00:22:45.482Z,5.93
2023-04-20T00:23:49.545Z,5.94
2023-04-20T00:24:52.247Z,5.96
2023-04-20T00:25:55.967Z,5.92
2023-04-20T00:26:58.700Z,5.95
2023-04-20T00:28:02.243Z,5.96
2023-04-20T00:29:04.727Z,5.96
2023-04-20T00:30:08.655Z,5.96
2023-04-20T00:31:11.367Z,5.96
2023-04-20T00:32:15.151Z,5.92
2023-04-20T00:33:17.380Z,5.95
2023-04-20T00:34:22.759Z,5.95
2023-04-20T00:35:25.629Z,5.95
2023-04-20T00:36:30.154Z,5.94
2023-04-20T00:37:32.768Z,5.92
2023-04-20T00:38:36.744Z,5.94
2023-04-20T00:39:39.502Z,5.91
2023-04-20T00:40:44.928Z,5.90
2023-04-20T00:41:48.110Z,5.88
2023-04-20T00:42:51.663Z,5.87
2023-04-20T00:43:54.925Z,5.85
2023-04-20T00:44:58.781Z,5.81
2023-04-20T00:46:01.579Z,5.83
2023-04-20T00:47:05.195Z,5.81
2023-04-20T00:48:07.855Z,5.81
2023-04-20T00:49:11.884Z,5.78
2023-04-20T00:50:16.460Z,5.76
2023-04-20T00:51:21.434Z,5.78
2023-04-20T00:52:24.331Z,5.71
2023-04-20T00:53:27.989Z,5.75
2023-04-20T00:54:31.103Z,5.71
2023-04-20T00:55:36.197Z,5.71
2023-04-20T00:56:39.515Z,5.68
2023-04-20T00:57:43.360Z,5.67
2023-04-20T00:58:46.566Z,5.64
2023-04-20T00:59:50.591Z,5.63
2023-04-20T01:00:53.407Z,5.63
2023-04-20T01:01:57.299Z,5.62
2023-04-20T01:03:00.218Z,5.60
2023-04-20T01:04:04.168Z,5.58
2023-04-20T01:05:07.392Z,5.59
2023-04-20T01:06:13.664Z,5.55
2023-04-20T01:07:16.487Z,5.56
2023-04-20T01:08:20.260Z,5.56
2023-04-20T01:09:22.879Z,5.56
2023-04-20T01:10:26.507Z,5.56
2023-04-20T01:11:28.867Z,5.54
2023-04-20T01:12:32.391Z,5.54
2023-04-20T01:13:35.013Z,5.53
2023-04-20T01:14:38.582Z,5.52
2023-04-20T01:15:40.878Z,5.53
2023-04-20T01:16:45.102Z,5.49
2023-04-20T01:17:47.783Z,5.51
2023-04-20T01:18:52.811Z,5.50
2023-04-20T01:19:55.954Z,5.46
2023-04-20T01:20:59.671Z,5.42
2023-04-20T01:22:03.886Z,5.47
2023-04-20T01:23:08.930Z,5.45
2023-04-20T01:24:11.663Z,5.44
2023-04-20T01:25:15.412Z,5.41
2023-04-20T01:26:19.735Z,5.41
2023-04-20T01:27:23.520Z,5.40
2023-04-20T01:28:27.029Z,5.39
2023-04-20T01:29:30.680Z,5.39
2023-04-20T01:30:34.685Z,5.39
2023-04-20T01:31:38.027Z,5.39
2023-04-20T01:32:41.596Z,5.40
2023-04-20T01:33:45.205Z,5.40
2023-04-20T01:34:47.731Z,5.41
2023-04-20T01:35:51.507Z,5.41
2023-04-20T01:36:53.698Z,5.42
2023-04-20T01:37:57.522Z,5.42
2023-04-20T01:39:01.573Z,5.42
2023-04-20T01:40:06.520Z,5.42
2023-04-20T01:41:10.058Z,5.42
2023-04-20T01:42:13.687Z,5.43
2023-04-20T01:43:16.197Z,5.43
2023-04-20T01:44:19.562Z,5.42
2023-04-20T01:45:22.240Z,5.41
2023-04-20T01:46:26.113Z,5.41
2023-04-20T01:47:28.566Z,5.41
2023-04-20T01:48:32.527Z,5.42
2023-04-20T01:49:35.068Z,5.41
2023-04-20T01:50:38.872Z,5.39
2023-04-20T01:51:41.316Z,5.41
2023-04-20T01:52:45.072Z,5.42
2023-04-20T01:53:47.353Z,5.42
2023-04-20T01:54:52.360Z,5.42
2023-04-20T01:55:55.046Z,5.39
2023-04-20T01:56:59.021Z,5.42
2023-04-20T01:58:01.635Z,5.40
2023-04-20T01:59:05.389Z,5.42
2023-04-20T02:00:10.341Z,5.42
2023-04-20T02:01:14.014Z,5.43
2023-04-20T02:02:16.905Z,5.40
2023-04-20T02:03:20.900Z,5.42
2023-04-20T02:04:24.894Z,5.43
2023-04-20T02:05:28.254Z,5.45
2023-04-20T02:06:31.421Z,5.45
2023-04-20T02:07:35.204Z,5.47
2023-04-20T02:08:37.458Z,5.46
2023-04-20T02:09:41.161Z,5.48
2023-04-20T02:10:44.864Z,5.49
2023-04-20T02:11:48.476Z,5.47
2023-04-20T02:12:50.994Z,5.48
2023-04-20T02:13:54.598Z,5.49
2023-04-20T02:14:57.403Z,5.49
2023-04-20T02:16:01.592Z,5.51
2023-04-20T02:17:04.611Z,5.51
2023-04-20T02:18:09.053Z,5.48
2023-04-20T02:19:11.759Z,5.52
2023-04-20T02:20:15.482Z,5.55
2023-04-20T02:21:19.451Z,5.58
2023-04-20T02:22:23.093Z,5.60
2023-04-20T02:23:25.798Z,5.60
2023-04-20T02:24:29.373Z,5.62
2023-04-20T02:25:31.860Z,5.64
2023-04-20T02:26:36.911Z,5.66
2023-04-20T02:27:39.532Z,5.67
2023-04-20T02:28:43.193Z,5.55
2023-04-20T02:29:45.389Z,5.73
2023-04-20T02:30:49.211Z,5.74
2023-04-20T02:31:51.771Z,5.77
2023-04-20T02:32:55.429Z,5.81
2023-04-20T02:33:58.145Z,5.83
2023-04-20T02:35:01.974Z,5.66
2023-04-20T02:36:09.322Z,5.83
2023-04-20T02:37:12.953Z,5.86
2023-04-20T02:38:15.189Z,5.87
2023-04-20T02:39:19.194Z,5.83
2023-04-20T02:40:22.165Z,5.89
2023-04-20T02:41:25.936Z,5.88
2023-04-20T02:42:29.959Z,5.90
2023-04-20T02:43:36.329Z,5.92
2023-04-20T02:44:38.929Z,5.93
2023-04-20T02:45:42.441Z,5.96
2023-04-20T02:46:45.084Z,5.98
2023-04-20T02:47:48.822Z,6.00
2023-04-20T02:48:51.622Z,6.01
2023-04-20T02:49:55.207Z,6.00
2023-04-20T02:50:57.416Z,6.03
2023-04-20T02:52:00.983Z,6.05
2023-04-20T02:53:03.625Z,6.02
2023-04-20T02:54:07.664Z,6.10
2023-04-20T02:55:10.464Z,6.10
2023-04-20T02:56:14.085Z,6.10
2023-04-20T02:57:16.513Z,6.14
2023-04-20T02:58:21.546Z,6.17
2023-04-20T02:59:24.172Z,6.19
2023-04-20T03:00:28.104Z,6.23
2023-04-20T03:01:30.885Z,6.23
2023-04-20T03:02:34.944Z,6.26
2023-04-20T03:03:37.907Z,6.32
2023-04-20T03:04:41.901Z,6.35
2023-04-20T03:05:44.575Z,6.39
2023-04-20T03:06:48.915Z,6.40
2023-04-20T03:07:51.683Z,6.44
2023-04-20T03:08:55.464Z,6.50
2023-04-20T03:09:58.134Z,6.50
2023-04-20T03:11:01.648Z,6.56
2023-04-20T03:12:04.081Z,6.60
2023-04-20T03:13:07.820Z,6.64
2023-04-20T03:14:12.032Z,6.66
2023-04-20T03:15:15.871Z,6.66
2023-04-20T03:16:18.542Z,6.73
2023-04-20T03:17:22.087Z,6.74
2023-04-20T03:18:24.771Z,6.78
2023-04-20T03:19:28.546Z,6.82
2023-04-20T03:20:31.404Z,6.86
2023-04-20T03:21:35.296Z,6.87
2023-04-20T03:22:37.954Z,6.90
2023-04-20T03:23:41.757Z,6.91
2023-04-20T03:24:44.322Z,6.92
2023-04-20T03:25:48.040Z,6.91
2023-04-20T03:26:51.036Z,6.95
2023-04-20T03:27:54.700Z,6.94
2023-04-20T03:28:57.414Z,6.97
2023-04-20T03:30:02.558Z,6.99
2023-04-20T03:31:08.031Z,7.02
2023-04-20T03:32:11.797Z,7.04
2023-04-20T03:33:14.635Z,7.06
2023-04-20T03:34:18.291Z,7.08
2023-04-20T03:35:21.234Z,7.12
2023-04-20T03:36:25.049Z,7.15
2023-04-20T03:37:27.805Z,7.18
2023-04-20T03:38:32.410Z,7.20
2023-04-20T03:39:35.084Z,7.25
2023-04-20T03:40:38.745Z,7.26
2023-04-20T03:41:41.455Z,7.27
2023-04-20T03:42:45.054Z,7.31
2023-04-20T03:43:47.289Z,7.34
2023-04-20T03:44:50.956Z,7.37
2023-04-20T03:45:56.221Z,7.41
2023-04-20T03:46:59.793Z,7.46
2023-04-20T03:48:02.188Z,7.48
2023-04-20T03:49:05.446Z,7.50
2023-04-20T03:50:08.850Z,7.54
2023-04-20T03:51:12.694Z,7.56
2023-04-20T03:52:14.787Z,7.57
2023-04-20T03:53:18.332Z,7.57
2023-04-20T03:54:20.847Z,7.58
2023-04-20T03:55:24.537Z,7.58
2023-04-20T03:56:27.521Z,7.59
2023-04-20T03:57:31.132Z,7.61
2023-04-20T03:58:33.370Z,7.66
2023-04-20T03:59:36.953Z,7.69
2023-04-20T04:00:39.292Z,7.78
2023-04-20T04:01:44.559Z,7.84
2023-04-20T04:02:47.414Z,7.94
2023-04-20T04:03:51.661Z,8.02
2023-04-20T04:04:54.750Z,7.99
2023-04-20T04:05:58.668Z,8.19
2023-04-20T04:07:01.449Z,8.24
2023-04-20T04:08:05.112Z,8.41
2023-04-20T04:09:07.843Z,8.49
2023-04-20T04:10:12.254Z,8.59
2023-04-20T04:11:15.083Z,8.64
2023-04-20T04:12:18.774Z,8.75
2023-04-20T04:13:21.352Z,8.83
2023-04-20T04:14:25.026Z,8.90
2023-04-20T04:15:27.656Z,8.96
2023-04-20T04:16:31.467Z,9.03
2023-04-20T04:17:35.564Z,9.13
2023-04-20T04:18:43.642Z,9.20
2023-04-20T04:19:46.536Z,9.28
2023-04-20T04:20:50.303Z,9.32
2023-04-20T04:21:54.014Z,9.36
2023-04-20T04:22:57.752Z,9.42
2023-04-20T04:24:00.355Z,9.41
2023-04-20T04:25:04.331Z,9.50
2023-04-20T04:26:06.951Z,9.52
2023-04-20T04:27:11.435Z,9.57
2023-04-20T04:28:14.992Z,9.62
2023-04-20T04:29:19.088Z,9.64
2023-04-20T04:30:21.895Z,9.63
2023-04-20T04:31:25.701Z,9.66
2023-04-20T04:32:28.648Z,9.69
2023-04-20T04:33:33.984Z,9.74
2023-04-20T04:34:37.909Z,9.78
2023-04-20T04:35:44.039Z,9.79
2023-04-20T04:36:46.985Z,9.84
2023-04-20T04:37:50.914Z,9.88
2023-04-20T04:38:53.797Z,9.92
2023-04-20T04:39:58.396Z,9.94
2023-04-20T04:41:01.297Z,10.00
2023-04-20T04:42:05.414Z,10.03
2023-04-20T04:43:10.362Z,10.08
2023-04-20T04:44:15.748Z,10.12
2023-04-20T04:45:18.700Z,10.14
2023-04-20T04:46:22.820Z,10.19
2023-04-20T04:47:25.894Z,10.21
2023-04-20T04:48:29.619Z,10.21
2023-04-20T04:49:33.664Z,10.27
2023-04-20T04:50:37.893Z,10.32
2023-04-20T04:51:40.665Z,10.34
2023-04-20T04:52:44.343Z,10.35
2023-04-20T04:53:47.780Z,10.37
2023-04-20T04:54:51.376Z,10.38
2023-04-20T04:55:54.157Z,10.42
2023-04-20T04:56:58.394Z,10.44
2023-04-20T04:58:02.009Z,10.48
2023-04-20T04:59:05.871Z,10.46
2023-04-20T05:00:11.993Z,10.55
2023-04-20T05:01:16.018Z,10.57
2023-04-20T05:02:18.862Z,10.65
2023-04-20T05:03:22.792Z,10.69
2023-04-20T05:04:25.735Z,10.76
2023-04-20T05:05:31.205Z,10.81
2023-04-20T05:06:33.827Z,10.87
2023-04-20T05:07:38.656Z,10.92
2023-04-20T05:08:41.476Z,10.96
2023-04-20T05:09:45.399Z,11.01
2023-04-20T05:10:48.022Z,11.06
2023-04-20T05:11:51.631Z,11.09
2023-04-20T05:12:54.411Z,11.10
2023-04-20T05:13:58.061Z,11.17
2023-04-20T05:15:00.819Z,11.22
2023-04-20T05:16:04.700Z,11.30
2023-04-20T05:17:07.290Z,11.28
2023-04-20T05:18:10.925Z,11.46
2023-04-20T05:19:13.499Z,11.51
2023-04-20T05:20:17.472Z,11.55
2023-04-20T05:21:21.547Z,11.62
2023-04-20T05:22:25.216Z,11.68
2023-04-20T05:23:27.374Z,11.72
2023-04-20T05:24:31.177Z,11.75
2023-04-20T05:25:34.061Z,11.79
2023-04-20T05:26:37.636Z,11.80
2023-04-20T05:27:40.310Z,11.84
2023-04-20T05:28:43.974Z,11.84
2023-04-20T05:29:46.561Z,11.86
2023-04-20T05:30:50.328Z,11.85
2023-04-20T05:31:53.205Z,11.91
2023-04-20T05:32:56.950Z,11.93
2023-04-20T05:33:59.668Z,11.94
2023-04-20T05:35:03.946Z,11.95
2023-04-20T05:36:09.594Z,11.92
2023-04-20T05:37:14.631Z,11.89
2023-04-20T05:38:17.325Z,11.93
2023-04-20T05:39:21.165Z,11.78
2023-04-20T05:40:24.015Z,11.88
2023-04-20T05:41:28.219Z,11.82
2023-04-20T05:42:31.004Z,11.88
2023-04-20T05:43:34.660Z,11.89
2023-04-20T05:44:37.297Z,11.77
2023-04-20T05:45:41.006Z,11.75
2023-04-20T05:46:43.951Z,11.74
2023-04-20T05:47:55.402Z,11.68
2023-04-20T05:48:59.284Z,11.67
2023-04-20T05:50:01.485Z,11.65
2023-04-20T05:51:04.874Z,11.63
2023-04-20T05:52:07.492Z,11.53
2023-04-20T05:53:12.755Z,11.54
2023-04-20T05:54:15.285Z,11.48
2023-04-20T05:55:22.053Z,11.46
2023-04-20T05:56:25.371Z,11.44
2023-04-20T05:57:29.427Z,11.40
2023-04-20T05:58:33.376Z,11.38
2023-04-20T05:59:37.799Z,11.40
2023-04-20T06:00:40.895Z,11.37
2023-04-20T06:01:44.603Z,11.34
2023-04-20T06:02:47.431Z,11.35
2023-04-20T06:03:51.504Z,11.30
2023-04-20T06:04:54.438Z,11.28
2023-04-20T06:05:58.194Z,11.31
2023-04-20T06:07:01.005Z,11.31
2023-04-20T06:08:05.026Z,11.31
2023-04-20T06:09:09.071Z,11.29
2023-04-20T06:10:13.034Z,11.30
2023-04-20T06:11:15.738Z,11.35
2023-04-20T06:12:19.526Z,11.38
2023-04-20T06:13:22.547Z,11.41
2023-04-20T06:14:26.105Z,11.45
2023-04-20T06:15:28.405Z,11.49
2023-04-20T06:16:32.029Z,11.53
2023-04-20T06:17:38.016Z,11.53
2023-04-20T06:18:40.712Z,11.58
2023-04-20T06:19:44.603Z,11.60
2023-04-20T06:20:48.294Z,11.65
2023-04-20T06:21:50.866Z,11.72
2023-04-20T06:22:54.782Z,11.77
2023-04-20T06:23:57.558Z,11.76
2023-04-20T06:25:03.276Z,11.83
2023-04-20T06:26:09.062Z,11.84
2023-04-20T06:27:13.168Z,11.86
2023-04-20T06:28:17.223Z,11.95
2023-04-20T06:29:21.184Z,12.02
2023-04-20T06:30:23.946Z,12.08
2023-04-20T06:31:28.073Z,12.12
2023-04-20T06:32:32.230Z,12.18
2023-04-20T06:33:35.893Z,12.20
2023-04-20T06:34:38.744Z,12.26
2023-04-20T06:35:42.222Z,12.27
2023-04-20T06:36:44.809Z,12.32
2023-04-20T06:37:48.350Z,12.35
2023-04-20T06:38:51.963Z,12.36
2023-04-20T06:39:56.318Z,12.33
2023-04-20T06:41:03.104Z,12.35
2023-04-20T06:42:06.881Z,12.36
2023-04-20T06:43:10.587Z,12.44
2023-04-20T06:44:12.756Z,12.48
2023-04-20T06:45:16.672Z,12.46
2023-04-20T06:46:19.392Z,12.62
2023-04-20T06:47:23.009Z,12.70
2023-04-20T06:48:32.139Z,12.79
2023-04-20T06:49:37.756Z,12.89
2023-04-20T06:50:40.483Z,12.93
2023-04-20T06:51:45.113Z,13.04
2023-04-20T06:52:48.617Z,13.12
2023-04-20T06:53:52.371Z,13.21
2023-04-20T06:54:56.036Z,13.30
2023-04-20T06:56:00.982Z,13.37
2023-04-20T06:57:03.520Z,13.47
2023-04-20T06:58:07.329Z,13.58
2023-04-20T06:59:10.899Z,13.65
2023-04-20T07:00:13.574Z,13.76
2023-04-20T07:01:17.439Z,13.84
2023-04-20T07:02:20.255Z,13.94
2023-04-20T07:04:27.102Z,14.16
2023-04-20T07:05:30.974Z,14.13
2023-04-20T07:06:34.702Z,14.22
2023-04-20T07:07:36.872Z,14.26
2023-04-20T07:08:40.654Z,14.27
2023-04-20T07:09:43.274Z,14.32
2023-04-20T07:10:46.979Z,14.41
2023-04-20T07:11:52.065Z,14.50
2023-04-20T07:12:55.689Z,14.59
2023-04-20T07:13:58.429Z,14.67
2023-04-20T07:15:03.219Z,14.79
2023-04-20T07:16:10.460Z,14.83
2023-04-20T07:17:13.234Z,14.96
2023-04-20T07:18:16.946Z,15.06
2023-04-20T07:19:19.701Z,15.17
2023-04-20T07:20:23.820Z,15.30
2023-04-20T07:21:27.322Z,15.37
2023-04-20T07:22:30.698Z,15.44
2023-04-20T07:23:33.301Z,15.49
2023-04-20T07:24:36.947Z,15.50
2023-04-20T07:25:40.159Z,15.50
2023-04-20T07:26:42.696Z,15.52
2023-04-20T07:27:47.813Z,15.55
2023-04-20T07:28:50.277Z,15.53
2023-04-20T07:29:54.100Z,15.56
2023-04-20T07:30:57.570Z,15.55
2023-04-20T07:32:00.932Z,15.53
2023-04-20T07:33:05.118Z,15.49
2023-04-20T07:34:07.619Z,15.46
2023-04-20T07:35:12.083Z,15.48
2023-04-20T07:36:14.834Z,15.49
2023-04-20T07:37:18.712Z,15.39
2023-04-20T07:38:22.795Z,15.42
2023-04-20T07:39:27.407Z,15.43
2023-04-20T07:40:31.336Z,15.41
2023-04-20T07:41:33.848Z,15.45
2023-04-20T07:42:38.420Z,15.40
2023-04-20T07:43:42.778Z,15.37
2023-04-20T07:44:46.685Z,15.33
2023-04-20T07:45:49.239Z,15.37
2023-04-20T07:46:53.025Z,15.31
2023-04-20T07:47:57.619Z,15.31
2023-04-20T07:49:00.458Z,15.35
2023-04-20T07:50:04.337Z,15.36
2023-04-20T07:51:09.763Z,15.30
2023-04-20T07:52:16.880Z,15.38
2023-04-20T07:53:21.332Z,15.41
2023-04-20T07:54:24.039Z,15.44
2023-04-20T07:55:27.650Z,15.53
2023-04-20T07:56:30.527Z,15.60
2023-04-20T07:57:34.147Z,15.66
2023-04-20T07:58:38.913Z,15.74
2023-04-20T07:59:44.129Z,15.70
2023-04-20T08:00:47.024Z,15.76
2023-04-20T08:01:50.766Z,15.73
2023-04-20T08:02:54.689Z,15.82
2023-04-20T08:03:57.753Z,15.85
2023-04-20T08:05:04.091Z,15.92
2023-04-20T08:06:08.315Z,15.80
2023-04-20T08:07:12.297Z,15.92
2023-04-20T08:08:18.018Z,15.97
2023-04-20T08:09:21.009Z,15.96
2023-04-20T08:10:25.024Z,15.94
2023-04-20T08:11:27.817Z,15.83
2023-04-20T08:12:31.713Z,15.82
2023-04-20T08:13:35.465Z,15.81
2023-04-20T08:14:38.497Z,15.78
2023-04-20T08:15:43.709Z,15.55
2023-04-20T08:16:46.401Z,15.55
2023-04-20T08:17:50.433Z,15.17
2023-04-20T08:18:52.910Z,15.07
2023-04-20T08:19:56.638Z,14.86
2023-04-20T08:21:00.534Z,14.68
2023-04-20T08:22:03.537Z,14.60
2023-04-20T08:23:07.207Z,14.64
2023-04-20T08:24:10.365Z,14.54
2023-04-20T08:25:13.974Z,14.51
2023-04-20T08:26:17.164Z,14.44
2023-04-20T08:27:20.738Z,14.48
2023-04-20T08:29:33.226Z,14.48
2023-04-20T08:30:36.846Z,14.53
2023-04-20T08:31:41.288Z,14.56
2023-04-20T08:32:45.119Z,14.54
2023-04-20T08:33:47.990Z,14.61
2023-04-20T08:34:51.921Z,14.62
2023-04-20T08:35:54.423Z,14.65
2023-04-20T08:36:58.346Z,14.71
2023-04-20T08:38:00.797Z,14.78
2023-04-20T08:39:09.455Z,14.86
2023-04-20T08:40:14.081Z,14.80
2023-04-20T08:41:17.807Z,14.96
2023-04-20T08:42:21.431Z,15.06
2023-04-20T08:43:25.262Z,15.11
2023-04-20T08:44:27.854Z,15.16
2023-04-20T08:45:32.436Z,15.24
2023-04-20T08:46:35.709Z,15.29
2023-04-20T08:47:42.299Z,15.33
2023-04-20T08:48:47.905Z,15.36
2023-04-20T08:49:54.890Z,15.32
2023-04-20T08:50:57.367Z,15.34
2023-04-20T08:52:01.295Z,15.15
2023-04-20T08:53:05.757Z,15.10
2023-04-20T08:54:09.613Z,15.09
2023-04-20T08:55:17.614Z,15.07
2023-04-20T08:56:20.270Z,15.08
2023-04-20T08:57:23.894Z,15.12
2023-04-20T08:58:32.530Z,15.21
2023-04-20T08:59:37.590Z,15.33
2023-04-20T09:00:48.089Z,15.41
2023-04-20T09:01:51.702Z,15.49
2023-04-20T09:02:56.874Z,15.57
2023-04-20T09:04:01.626Z,15.58
2023-04-20T09:05:05.880Z,15.61
2023-04-20T09:06:17.451Z,15.69
2023-04-20T09:07:21.731Z,15.72
2023-04-20T09:08:36.484Z,15.76
2023-04-20T09:09:40.479Z,15.82
2023-04-20T09:10:44.391Z,15.86
2023-04-20T09:11:48.711Z,15.94
2023-04-20T09:12:52.296Z,15.92
2023-04-20T09:14:04.843Z,15.98
2023-04-20T09:15:09.860Z,16.07
2023-04-20T09:16:13.798Z,16.17
2023-04-20T09:17:18.413Z,16.27
2023-04-20T09:18:23.886Z,16.26
2023-04-20T09:19:28.253Z,16.35
2023-04-20T09:20:32.062Z,16.49
2023-04-20T09:21:36.070Z,16.58
2023-04-20T09:22:39.830Z,16.67
2023-04-20T09:23:43.580Z,16.84
2023-04-20T09:24:46.166Z,16.96
2023-04-20T09:25:54.365Z,16.94
2023-04-20T09:26:57.090Z,16.99
2023-04-20T09:28:02.830Z,16.94
2023-04-20T09:29:17.524Z,16.99
2023-04-20T09:30:21.174Z,16.90
2023-04-20T09:31:25.823Z,16.96
2023-04-20T09:32:30.117Z,17.07
2023-04-20T09:33:36.858Z,16.88
2023-04-20T09:34:45.269Z,16.97
2023-04-20T09:35:48.316Z,17.01
2023-04-20T09:36:54.580Z,17.09
2023-04-20T09:37:57.704Z,17.13
2023-04-20T09:39:06.964Z,17.22
2023-04-20T09:40:11.935Z,17.26
2023-04-20T09:41:19.630Z,17.32
2023-04-20T09:42:25.999Z,17.38
2023-04-20T09:43:30.964Z,17.44
2023-04-20T09:44:35.707Z,17.44
2023-04-20T09:45:39.594Z,17.48
2023-04-20T09:46:43.907Z,17.41
2023-04-20T09:47:48.002Z,17.37
2023-04-20T09:48:53.430Z,17.40
2023-04-20T09:49:57.312Z,17.36
2023-04-20T09:51:04.005Z,17.33
2023-04-20T09:52:06.670Z,17.29
2023-04-20T09:53:11.095Z,17.27
2023-04-20T09:54:15.196Z,17.26
2023-04-20T09:55:19.139Z,17.24
2023-04-20T09:56:22.591Z,17.22
2023-04-20T09:57:27.136Z,17.07
2023-04-20T09:58:32.962Z,17.09
2023-04-20T09:59:37.166Z,17.05
2023-04-20T10:00:39.884Z,17.04
2023-04-20T10:01:43.778Z,17.07
2023-04-20T10:02:48.301Z,17.01
2023-04-20T10:03:55.497Z,16.74
2023-04-20T10:04:58.940Z,16.69
2023-04-20T10:06:03.132Z,16.63
2023-04-20T10:07:06.613Z,16.59
2023-04-20T10:08:10.502Z,16.48
2023-04-20T10:09:23.807Z,16.36
2023-04-20T10:10:26.478Z,16.19
2023-04-20T10:11:44.421Z,15.83
2023-04-20T10:12:55.167Z,15.91
2023-04-20T10:13:59.094Z,15.91
2023-04-20T10:15:03.061Z,15.87
2023-04-20T10:16:18.549Z,15.70
2023-04-20T10:17:30.482Z,15.75
2023-04-20T10:18:34.336Z,15.74
2023-04-20T10:19:40.103Z,15.50
2023-04-20T10:20:43.785Z,15.63
2023-04-20T10:21:48.477Z,15.58
2023-04-20T10:22:53.132Z,15.38
2023-04-20T10:23:56.626Z,15.49
2023-04-20T10:25:00.757Z,15.50
2023-04-20T10:26:04.355Z,15.56
2023-04-20T10:27:17.487Z,15.49
2023-04-20T10:28:22.101Z,15.63
2023-04-20T10:29:25.224Z,15.71
2023-04-20T10:30:30.079Z,15.82
2023-04-20T10:31:37.298Z,15.88
2023-04-20T10:32:40.959Z,15.93
2023-04-20T10:33:55.342Z,15.66
2023-04-20T10:35:04.865Z,15.75
2023-04-20T10:36:09.293Z,15.91
2023-04-20T10:37:13.398Z,16.03
2023-04-20T10:38:17.922Z,16.21
2023-04-20T10:39:22.442Z,16.12
2023-04-20T10:40:29.495Z,16.34
2023-04-20T10:41:33.345Z,16.26
2023-04-20T10:42:42.916Z,16.13
2023-04-20T10:43:46.493Z,16.34
2023-04-20T10:44:49.395Z,16.42
2023-04-20T10:45:53.606Z,16.54
2023-04-20T10:46:56.845Z,16.78
2023-04-20T10:48:00.549Z,16.88
2023-04-20T10:49:04.328Z,17.05
2023-04-20T10:50:09.777Z,17.22
2023-04-20T10:51:13.746Z,17.12
2023-04-20T10:52:17.534Z,16.94
2023-04-20T10:53:21.671Z,16.89
2023-04-20T10:54:25.343Z,16.81
2023-04-20T10:55:27.985Z,16.79
2023-04-20T10:56:38.766Z,16.80
2023-04-20T10:57:46.878Z,16.76
2023-04-20T10:58:49.488Z,16.74
2023-04-20T10:59:53.157Z,16.52
2023-04-20T11:00:58.628Z,16.66
2023-04-20T11:02:02.725Z,16.53
2023-04-20T11:03:05.725Z,16.04
2023-04-20T11:04:10.707Z,16.03
2023-04-20T11:05:16.550Z,16.23
2023-04-20T11:06:19.243Z,16.29
2023-04-20T11:07:22.897Z,16.30
2023-04-20T11:08:35.968Z,16.44
2023-04-20T11:09:39.613Z,16.49
2023-04-20T11:10:43.029Z,16.56
2023-04-20T11:11:46.609Z,16.63
2023-04-20T11:12:49.488Z,16.46
2023-04-20T11:13:53.273Z,16.58
2023-04-20T11:15:00.555Z,16.78
2023-04-20T11:16:12.453Z,16.93
2023-04-20T11:17:16.244Z,16.95
2023-04-20T11:18:19.100Z,17.07
2023-04-20T11:19:32.748Z,17.03
2023-04-20T11:20:37.211Z,16.85
2023-04-20T11:21:42.943Z,16.85
2023-04-20T11:22:45.901Z,16.74
2023-04-20T11:23:50.071Z,16.69
2023-04-20T11:25:05.787Z,16.79
2023-04-20T11:26:09.699Z,16.94
2023-04-20T11:27:22.476Z,17.01
2023-04-20T11:28:30.560Z,17.05
2023-04-20T11:29:35.824Z,16.96
2023-04-20T11:30:40.420Z,17.00
2023-04-20T11:31:44.129Z,17.04
2023-04-20T11:32:55.939Z,17.00
2023-04-20T11:33:59.884Z,17.06
2023-04-20T11:35:07.280Z,17.04
2023-04-20T11:36:20.098Z,16.98
2023-04-20T11:37:23.805Z,17.08
2023-04-20T11:38:31.853Z,17.24
2023-04-20T11:39:35.925Z,16.96
2023-04-20T11:40:38.752Z,16.74
2023-04-20T11:41:42.870Z,16.92
2023-04-20T11:42:46.565Z,16.66
2023-04-20T11:43:51.442Z,16.75
2023-04-20T11:44:53.978Z,16.79
2023-04-20T11:45:58.609Z,16.72
2023-04-20T11:47:02.304Z,16.72
2023-04-20T11:48:07.539Z,16.62
2023-04-20T11:49:10.045Z,16.62
2023-04-20T11:50:14.619Z,16.82
2023-04-20T11:51:18.718Z,16.82
2023-04-20T11:52:23.017Z,17.07
2023-04-20T11:53:25.601Z,17.16
2023-04-20T11:54:32.483Z,17.31
2023-04-20T11:55:34.940Z,17.38
2023-04-20T11:56:38.762Z,17.29
2023-04-20T11:57:41.459Z,17.34
2023-04-20T11:58:45.190Z,17.29
2023-04-20T11:59:49.387Z,17.42
2023-04-20T12:00:53.086Z,17.49
2023-04-20T12:01:55.705Z,17.61
2023-04-20T12:03:00.251Z,17.81
2023-04-20T12:04:03.587Z,17.99
2023-04-20T12:05:08.879Z,18.18
2023-04-20T12:06:11.652Z,18.41
2023-04-20T12:07:17.144Z,18.64
2023-04-20T12:08:19.839Z,18.69
2023-04-20T12:09:23.464Z,18.63
2023-04-20T12:10:26.124Z,18.64
2023-04-20T12:11:29.806Z,18.70
2023-04-20T12:12:32.353Z,18.81
2023-04-20T12:13:36.043Z,18.77
2023-04-20T12:14:38.660Z,18.83
2023-04-20T12:15:42.222Z,18.49
2023-04-20T12:16:45.993Z,18.31
2023-04-20T12:17:49.719Z,18.42
2023-04-20T12:18:53.727Z,18.62
2023-04-20T12:19:58.152Z,18.77
2023-04-20T12:21:00.972Z,18.95
2023-04-20T12:22:04.648Z,19.06
2023-04-20T12:23:08.769Z,19.15
2023-04-20T12:24:12.531Z,19.13
2023-04-20T12:25:15.246Z,19.07
2023-04-20T12:26:18.854Z,19.17
2023-04-20T12:27:21.427Z,19.32
2023-04-20T12:28:25.069Z,19.48
2023-04-20T12:29:27.960Z,19.63
2023-04-20T12:30:31.839Z,19.80
2023-04-20T12:31:35.818Z,19.93
2023-04-20T12:32:39.817Z,20.05
2023-04-20T12:33:43.730Z,20.17
2023-04-20T12:34:46.403Z,20.23
2023-04-20T12:35:50.227Z,20.14
2023-04-20T12:36:52.731Z,20.14
2023-04-20T12:37:56.421Z,19.63
2023-04-20T12:39:00.712Z,19.74
2023-04-20T12:40:06.690Z,19.30
2023-04-20T12:41:13.644Z,19.25
2023-04-20T12:42:17.356Z,19.29
2023-04-20T12:43:20.674Z,19.16
2023-04-20T12:44:24.284Z,18.99
2023-04-20T12:45:36.553Z,18.99
2023-04-20T12:46:39.178Z,19.07
2023-04-20T12:47:43.279Z,19.02
2023-04-20T12:48:46.245Z,18.72
2023-04-20T12:49:50.203Z,18.64
2023-04-20T12:50:53.077Z,18.44
2023-04-20T12:51:56.745Z,18.51
2023-04-20T12:52:59.292Z,18.51
2023-04-20T12:54:04.485Z,18.55
2023-04-20T12:55:07.676Z,18.57
2023-04-20T12:56:11.493Z,18.42
2023-04-20T12:57:13.997Z,18.31
2023-04-20T12:58:17.990Z,18.27
2023-04-20T12:59:21.737Z,17.95
2023-04-20T13:00:25.626Z,17.76
2023-04-20T13:01:29.463Z,17.49
2023-04-20T13:02:32.676Z,17.53
2023-04-20T13:03:36.876Z,17.45
2023-04-20T13:04:39.669Z,17.20
2023-04-20T13:05:44.518Z,16.88
2023-04-20T13:06:47.347Z,16.82
2023-04-20T13:07:51.001Z,16.83
2023-04-20T13:08:54.900Z,16.94
2023-04-20T13:09:59.118Z,16.99
2023-04-20T13:11:02.785Z,17.08
2023-04-20T13:12:06.364Z,17.14
2023-04-20T13:13:10.458Z,17.22
2023-04-20T13:14:14.163Z,17.13
2023-04-20T13:15:31.845Z,17.19
2023-04-20T13:16:42.455Z,17.26
2023-04-20T13:17:45.257Z,17.15
2023-04-20T13:18:49.047Z,17.13
2023-04-20T13:19:52.166Z,17.08
2023-04-20T13:20:56.112Z,17.04
2023-04-20T13:21:58.861Z,16.98
2023-04-20T13:23:03.339Z,16.94
2023-04-20T13:24:06.210Z,16.88
2023-04-20T13:25:12.216Z,16.92
2023-04-20T13:26:14.739Z,16.87
2023-04-20T13:27:18.544Z,16.78
2023-04-20T13:28:21.234Z,16.71
2023-04-20T13:29:25.134Z,16.78
2023-04-20T13:30:27.995Z,16.61
2023-04-20T13:31:32.423Z,16.58
2023-04-20T13:32:36.370Z,16.56
2023-04-20T13:33:42.127Z,16.58
2023-04-20T13:34:44.610Z,16.57
2023-04-20T13:35:48.255Z,16.58
2023-04-20T13:36:52.721Z,16.50
2023-04-20T13:37:55.638Z,16.50
2023-04-20T13:38:59.504Z,16.38
2023-04-20T13:40:02.128Z,16.24
2023-04-20T13:41:07.444Z,16.26
2023-04-20T13:42:11.322Z,16.18
2023-04-20T13:43:13.872Z,16.18
2023-04-20T13:44:18.269Z,16.08
2023-04-20T13:45:21.135Z,16.01
2023-04-20T13:46:25.402Z,15.94
2023-04-20T13:47:28.450Z,15.88
2023-04-20T13:48:32.213Z,15.85
2023-04-20T13:49:34.552Z,15.85
2023-04-20T13:50:38.308Z,15.79
2023-04-20T13:51:42.156Z,15.58
2023-04-20T13:52:44.759Z,15.67
2023-04-20T13:53:49.498Z,15.65
2023-04-20T13:54:53.339Z,15.52
2023-04-20T13:55:55.908Z,15.54
2023-04-20T13:57:01.761Z,15.52